Terminal Aerodrome Forecast
Issued by NWS

Current Version | Previous Version | Text Only | Print | Product List | Glossary On
Versions: 1 2 3 4 5 6 7 8 9 10 11 12 13 14 15 16
000
FTUS46 KLOX 181124
TAFSBA
TAF
KSBA 181124Z 1812/1912 VRB03KT P6SM SKC
     FM181900 23008KT 6SM FU SKC
     FM190300 VRB03KT P6SM SKC=

USA.gov is the U.S. government's official web portal to all federal, state and local government web resources and services.